Historyczne dane pomiarowe

Dodano dane terminowe – wersja testowa.

Dane z okresu 1951-2019

Wersja bazy: 1.34 [2019-03-16, lista zmian], aktualizacja planowana na 2019-04-15

Dane meteo z obszaru Polski uzyskane na podstawie danych udostępnionych przez Instytut Meteorologii i Gospodarki Wodnej – Państwowy Instytut Badawczy.

 

Wybierz Datę:    

       

TemperaturaWilgotnośćZachmurzenieWiatrCiśnienieWidzialnośćZjawiska
 Data    tng td wb rh cc ccl cl cm ch dir g1 g2 mslp ppp      
1994-07-07 00:00:00 15.3--- 12.0 13.481wxwx1wx--1015.21000.4 0.0---wx
1994-07-07 01:00:00 13.5--- 11.4 12.387wxwxwx1wx--1015.11000.2----wx
1994-07-07 02:00:00 14.2--- 11.8 12.885wxwxwx1wx--1014.4 999.5----wx
1994-07-07 03:00:00 12.8--- 11.4 12.091wxwxwxwx1wx--1014.3 999.3----wx
1994-07-07 04:00:00 13.7--- 12.1 12.890wxwxwxwx0wx--1014.0 999.1----wx
1994-07-07 05:00:00 15.5--- 12.6 13.883wxwxwx0wx--1013.9 999.1----wx
1994-07-07 06:00:00 17.0--- 13.5 14.980wxwxwx0wx--1013.9 999.2 0.0---wx
1994-07-07 07:00:00 20.5--- 12.1 15.559wxwxwxwx3wx--1013.5 998.9----wx
1994-07-07 08:00:00 22.4--- 12.5 16.454wxwxwx1wx--1013.3 998.8----wx
1994-07-07 09:00:00 24.0--- 11.3 16.445wxwxwx2wx--1012.9 998.5----wx
1994-07-07 10:00:00 25.4--- 11.9 17.243wxwxwxwx2wx--1012.3 998.0----wx
1994-07-07 11:00:00 25.8--- 10.5 16.738wxwxwxwxwx2wx--1011.7 997.4----wx
1994-07-07 12:00:00 25.6--- 11.6 17.142wxwxwxwxwx3wx--1011.1 996.8 0.0---wx
1994-07-07 13:00:00 25.6--- 10.9 16.840wxwxwxwxwx3wx--1011.0 996.7----wx
1994-07-07 14:00:00 22.1--- 13.5 16.858wxwxwxwxwx8wx--1011.4 997.0----wx
1994-07-07 15:00:00 21.0--- 13.1 16.261wxwxwx6wx--1011.9 997.4----wx
1994-07-07 16:00:00 18.0--- 16.1 16.889wxwxwxwx3wx--1012.3 997.6----wx
1994-07-07 17:00:00 17.4--- 16.5 16.894wxwxwxwx4wx--1012.4 997.7----wxw1
1994-07-07 18:00:00 16.8--- 16.2 16.496wxwxwxwx4wx--1012.6 997.9 2.6---wxw1
1994-07-07 19:00:00 16.2--- 15.6 15.896wxwxwxwx3wx--1012.9 998.1----wxw1
1994-07-07 20:00:00 15.9--- 15.4 15.697wxwxwxwx2wx--1013.0 998.2----wxw1
1994-07-07 21:00:00 15.6--- 15.1 15.397wxwxwxwx2wx--1013.1 998.3----wxw1
1994-07-07 22:00:00 15.6--- 14.9 15.296wxwxwxwx2wx--1013.1 998.3----wx
1994-07-07 23:00:00 15.9--- 14.9 15.394wxwxwxwx4wx--1012.8 998.0----wx

 

Źródłem pochodzenia danych jest Instytut Meteorologii i Gospodarki Wodnej – Państwowy Instytut Badawczy. Dane Instytutu Meteorologii i Gospodarki Wodnej – Państwowego Instytutu Badawczego zostały przetworzone.

Dane źródłowe można odnaleźć na stronie https://dane.imgw.pl